KTTD

Details ICAO KTTD (TTD)
Name Portland Troutdale
Region United States
Timezone America/Los_Angeles (UTC-7.0)
Plans Departing 29
Arriving 25
Stats Elevation 39 ft / 12 m (AMSL)
Location 45.549366° -122.401252°
Runways 1
Magnetic Variation 15.192° E
Sunrise 2018-05-28 12:28:02 UTC / 2018-05-28 05:28:02 Local
Sunset 2018-05-29 03:48:41 UTC / 2018-05-28 20:48:41 Local
Advertisement - Login to hide

Runways

ID Width Length Bearing (true) Bearing (mag) Surface Threshold Offset Overrun Length
07 150 ft / 46 m 5,385 ft / 1,641 m 88.65° 73.46° Asphalt 0 ft / 0 m 0 ft / 0 m
25 150 ft / 46 m 5,385 ft / 1,641 m 268.67° 253.48° Asphalt 0 ft / 0 m 390 ft / 119 m

Map

Weather


0- 5 10 15 20 25 30 35+ Temperature / ° C

Clouds and Precipitation
Forecast for 2018-05-28 00:00 UTC. Updated 9 hours ago

Ground ~20,000 ft ~40,000 ft Winds

METAR

Not found

TAF

KTTD 272322Z 2800/2824 VRB04KT P6SM SKC FM281100 27001KT P6SM BKN020 FM281300 00000KT P6SM OVC015 FM281800 26003KT P6SM OVC025 FM281900 27005KT P6SM OVC050

Frequencies

Recorded 135.62 MHz ASOS
Unicom 122.95 MHz UNICOM
Tower 120.90 MHz TROUTDALE TWR
Approach 118.10 MHz APP
Unicom 120.90 MHz CTAF
Ground 121.80 MHz GND
Approach 124.35 MHz APP
Departure 124.35 MHz DEP
Warning: Do not use this data for real-world aviation or navigation. No guarantee of current accuracy is given.